createdAt,value
2024-03-09T00:01:22.376Z,64.98
2024-03-09T00:03:49.035Z,66.22
2024-03-09T00:06:15.683Z,64.86
2024-03-09T00:08:42.378Z,64.93
2024-03-09T00:11:09.417Z,65.69
2024-03-09T00:16:05.258Z,64.12
2024-03-09T00:18:37.199Z,64.03
2024-03-09T00:21:10.950Z,64.37
2024-03-09T00:23:37.849Z,64.65
2024-03-09T00:26:05.411Z,64.43
2024-03-09T00:28:32.209Z,64.51
2024-03-09T00:30:58.952Z,64.40
2024-03-09T00:33:27.104Z,64.58
2024-03-09T00:35:54.061Z,65.75
2024-03-09T00:38:20.840Z,64.54
2024-03-09T00:40:47.584Z,64.07
2024-03-09T00:43:14.429Z,64.90
2024-03-09T00:45:41.214Z,66.04
2024-03-09T00:48:08.239Z,65.86
2024-03-09T00:50:36.361Z,65.77
2024-03-09T00:53:03.154Z,65.12
2024-03-09T00:55:30.243Z,66.30
2024-03-09T00:57:57.136Z,67.53
2024-03-09T01:00:24.059Z,66.62
2024-03-09T01:02:51.195Z,67.89
2024-03-09T01:05:19.142Z,66.91
2024-03-09T01:07:47.731Z,66.74
2024-03-09T01:10:14.627Z,67.14
2024-03-09T01:12:42.745Z,65.62
2024-03-09T01:15:10.879Z,66.03
2024-03-09T01:17:38.318Z,66.18
2024-03-09T01:20:06.270Z,66.38
2024-03-09T01:22:33.473Z,66.56
2024-03-09T01:25:01.753Z,66.04
2024-03-09T01:27:28.956Z,66.47
2024-03-09T01:29:55.709Z,65.99
2024-03-09T01:32:22.618Z,65.68
2024-03-09T01:34:49.766Z,65.50
2024-03-09T01:37:16.642Z,65.00
2024-03-09T01:39:43.482Z,65.60
2024-03-09T01:42:11.927Z,64.55
2024-03-09T01:44:38.696Z,65.65
2024-03-09T01:47:08.899Z,67.58
2024-03-09T01:49:36.989Z,67.30
2024-03-09T01:52:05.412Z,68.00
2024-03-09T01:54:35.416Z,67.13
2024-03-09T01:57:02.309Z,65.32
2024-03-09T01:59:31.839Z,65.36
2024-03-09T02:01:59.325Z,65.54
2024-03-09T02:04:26.639Z,65.64
2024-03-09T02:06:53.658Z,64.03
2024-03-09T02:09:21.112Z,63.76
2024-03-09T02:11:48.459Z,64.63
2024-03-09T02:14:15.494Z,63.99
2024-03-09T02:16:43.826Z,65.62
2024-03-09T02:19:11.085Z,66.15
2024-03-09T02:21:37.766Z,65.09
2024-03-09T02:24:08.847Z,65.32
2024-03-09T02:26:37.348Z,65.75
2024-03-09T02:29:05.412Z,64.78
2024-03-09T02:31:32.563Z,66.64
2024-03-09T02:34:00.334Z,65.45
2024-03-09T02:36:28.072Z,65.43
2024-03-09T02:38:55.604Z,65.70
2024-03-09T02:41:22.964Z,65.89
2024-03-09T02:43:51.924Z,66.20
2024-03-09T02:46:19.101Z,65.63
2024-03-09T02:48:47.473Z,65.32
2024-03-09T02:51:15.286Z,64.56
2024-03-09T02:53:43.604Z,65.11
2024-03-09T02:56:11.250Z,65.64
2024-03-09T02:58:40.516Z,65.50
2024-03-09T03:01:10.087Z,64.29
2024-03-09T03:03:37.155Z,64.22
2024-03-09T03:06:04.142Z,66.32
2024-03-09T03:08:30.928Z,66.18
2024-03-09T03:10:57.892Z,65.99
2024-03-09T03:13:24.772Z,66.69
2024-03-09T03:15:51.640Z,65.53
2024-03-09T03:18:19.841Z,64.92
2024-03-09T03:20:46.728Z,65.82
2024-03-09T03:23:13.742Z,68.25
2024-03-09T03:25:40.883Z,66.62
2024-03-09T03:28:07.605Z,66.42
2024-03-09T03:30:34.811Z,67.86
2024-03-09T03:33:01.604Z,66.58
2024-03-09T03:35:30.028Z,66.38
2024-03-09T03:37:56.745Z,66.11
2024-03-09T03:40:24.577Z,69.56
2024-03-09T03:42:56.781Z,67.77
2024-03-09T03:45:23.646Z,67.08
2024-03-09T03:47:50.496Z,65.45
2024-03-09T03:50:17.200Z,65.84
2024-03-09T03:52:45.320Z,68.31
2024-03-09T03:55:12.411Z,68.54
2024-03-09T03:57:40.831Z,67.27
2024-03-09T04:00:08.930Z,67.27
2024-03-09T04:02:35.998Z,67.17
2024-03-09T04:05:04.976Z,67.39
2024-03-09T04:07:31.916Z,66.09
2024-03-09T04:10:00.149Z,70.36
2024-03-09T04:12:27.206Z,67.53
2024-03-09T04:14:53.998Z,67.54
2024-03-09T04:17:20.813Z,67.45
2024-03-09T04:19:47.863Z,67.68
2024-03-09T04:22:15.246Z,67.74
2024-03-09T04:24:43.851Z,70.18
2024-03-09T04:27:12.405Z,69.13
2024-03-09T04:29:39.265Z,67.90
2024-03-09T04:32:06.721Z,69.22
2024-03-09T04:34:33.413Z,68.91
2024-03-09T04:37:00.151Z,68.85
2024-03-09T04:39:27.061Z,69.35
2024-03-09T04:41:53.745Z,69.62
2024-03-09T04:44:27.654Z,68.45
2024-03-09T04:46:57.331Z,67.66
2024-03-09T04:49:24.248Z,66.63
2024-03-09T04:51:51.383Z,67.81
2024-03-09T04:54:18.236Z,67.68
2024-03-09T04:56:45.303Z,69.04
2024-03-09T04:59:12.291Z,66.79
2024-03-09T05:01:40.904Z,66.11
2024-03-09T05:04:07.950Z,66.38
2024-03-09T05:06:36.900Z,67.85
2024-03-09T05:09:03.828Z,69.29
2024-03-09T05:11:30.638Z,67.47
2024-03-09T05:13:57.375Z,67.41
2024-03-09T05:16:24.199Z,67.21
2024-03-09T05:18:52.821Z,66.33
2024-03-09T05:21:19.697Z,68.13
2024-03-09T05:23:46.528Z,68.61
2024-03-09T05:26:14.265Z,69.52
2024-03-09T05:28:41.182Z,67.73
2024-03-09T05:31:24.185Z,67.37
2024-03-09T05:33:52.475Z,69.47
2024-03-09T05:36:19.306Z,69.89
2024-03-09T05:38:45.967Z,70.77
2024-03-09T05:41:12.792Z,69.67
2024-03-09T05:43:39.684Z,69.66
2024-03-09T05:46:06.449Z,69.81
2024-03-09T05:48:33.978Z,68.30
2024-03-09T05:51:02.477Z,67.49
2024-03-09T05:53:29.165Z,68.17
2024-03-09T05:55:55.882Z,68.98
2024-03-09T05:58:22.823Z,69.64
2024-03-09T06:00:49.953Z,69.73
2024-03-09T06:03:16.706Z,70.55
2024-03-09T06:05:45.298Z,70.58
2024-03-09T06:08:13.813Z,71.28
2024-03-09T06:10:46.867Z,71.47
2024-03-09T06:13:18.176Z,71.62
2024-03-09T06:15:45.841Z,70.46
2024-03-09T06:18:13.242Z,71.50
2024-03-09T06:20:40.607Z,72.46
2024-03-09T06:23:07.341Z,73.63
2024-03-09T06:25:35.498Z,74.72
2024-03-09T06:28:05.707Z,72.65
2024-03-09T06:30:33.641Z,71.75
2024-03-09T06:33:03.149Z,72.92
2024-03-09T06:35:31.223Z,72.97
2024-03-09T06:37:59.400Z,73.86
2024-03-09T06:40:26.654Z,73.37
2024-03-09T06:42:58.253Z,73.99
2024-03-09T06:45:25.403Z,72.98
2024-03-09T06:47:52.073Z,72.55
2024-03-09T06:50:18.977Z,71.66
2024-03-09T06:52:45.800Z,72.79
2024-03-09T06:55:12.879Z,72.25
2024-03-09T06:57:41.043Z,72.71
2024-03-09T07:00:10.791Z,74.37
2024-03-09T07:02:37.427Z,72.76
2024-03-09T07:05:04.529Z,73.03
2024-03-09T07:07:31.299Z,71.63
2024-03-09T07:09:58.360Z,71.16
2024-03-09T07:12:28.990Z,71.75
2024-03-09T07:14:56.207Z,71.65
2024-03-09T07:17:24.537Z,72.05
2024-03-09T07:19:51.302Z,71.36
2024-03-09T07:22:18.590Z,72.63
2024-03-09T07:24:45.361Z,71.67
2024-03-09T07:27:12.447Z,71.29
2024-03-09T07:29:39.184Z,72.90
2024-03-09T07:32:08.042Z,73.67
2024-03-09T07:34:37.267Z,72.93
2024-03-09T07:37:04.820Z,73.50
2024-03-09T07:39:31.748Z,73.94
2024-03-09T07:41:58.474Z,73.54
2024-03-09T07:44:25.257Z,74.03
2024-03-09T07:46:52.307Z,72.39
2024-03-09T07:49:19.412Z,71.79
2024-03-09T07:51:47.857Z,70.63
2024-03-09T07:54:14.684Z,71.19
2024-03-09T07:56:41.327Z,69.84
2024-03-09T07:59:08.509Z,68.83
2024-03-09T08:01:35.498Z,68.05
2024-03-09T08:04:02.362Z,67.63
2024-03-09T08:06:29.197Z,67.83
2024-03-09T08:08:57.422Z,68.47
2024-03-09T08:11:25.147Z,68.69
2024-03-09T08:13:52.306Z,70.00
2024-03-09T08:16:19.409Z,72.04
2024-03-09T08:18:46.151Z,71.18
2024-03-09T08:21:13.191Z,70.69
2024-03-09T08:23:40.519Z,69.86
2024-03-09T08:26:09.462Z,69.89
2024-03-09T08:28:36.393Z,69.80
2024-03-09T08:31:03.509Z,70.15
2024-03-09T08:33:30.649Z,71.16
2024-03-09T08:35:58.009Z,72.18
2024-03-09T08:38:25.260Z,71.93
2024-03-09T08:40:52.439Z,74.61
2024-03-09T08:43:23.987Z,75.32
2024-03-09T08:45:51.010Z,75.45
2024-03-09T08:48:20.624Z,76.33
2024-03-09T08:50:50.417Z,75.10
2024-03-09T08:53:17.381Z,74.10
2024-03-09T08:55:46.596Z,74.92
2024-03-09T08:58:13.319Z,75.20
2024-03-09T09:00:42.459Z,74.96
2024-03-09T09:03:10.172Z,74.63
2024-03-09T09:05:36.924Z,74.17
2024-03-09T09:08:06.607Z,73.65
2024-03-09T09:10:34.629Z,72.76
2024-03-09T09:13:02.461Z,72.54
2024-03-09T09:15:29.242Z,74.02
2024-03-09T09:17:57.390Z,75.83
2024-03-09T09:20:25.734Z,74.67
2024-03-09T09:22:52.730Z,74.19
2024-03-09T09:25:19.759Z,74.40
2024-03-09T09:27:46.566Z,75.46
2024-03-09T09:30:13.766Z,74.97
2024-03-09T09:32:41.615Z,74.58
2024-03-09T09:35:11.022Z,74.49
2024-03-09T09:37:39.280Z,74.63
2024-03-09T09:40:11.799Z,74.38
2024-03-09T09:42:40.458Z,73.99
2024-03-09T09:45:11.002Z,73.49
2024-03-09T09:47:38.890Z,73.77
2024-03-09T09:50:08.047Z,73.07
2024-03-09T09:52:38.177Z,73.34
2024-03-09T09:55:06.331Z,72.68
2024-03-09T09:57:33.242Z,73.52
2024-03-09T10:00:01.443Z,73.67
2024-03-09T10:02:28.723Z,73.54
2024-03-09T10:04:57.312Z,75.61
2024-03-09T10:07:24.277Z,75.32
2024-03-09T10:09:57.450Z,75.34
2024-03-09T10:12:25.083Z,74.87
2024-03-09T10:14:52.102Z,74.56
2024-03-09T10:17:19.303Z,74.07
2024-03-09T10:19:46.236Z,73.65
2024-03-09T10:22:14.194Z,75.50
2024-03-09T10:24:54.741Z,75.50
2024-03-09T10:27:21.822Z,75.36
2024-03-09T10:29:48.794Z,75.89
2024-03-09T10:32:16.051Z,73.91
2024-03-09T10:34:43.032Z,73.01
2024-03-09T10:37:11.389Z,72.16
2024-03-09T10:39:39.245Z,71.90
2024-03-09T10:42:09.955Z,71.48
2024-03-09T10:44:36.873Z,70.92
2024-03-09T10:47:09.954Z,69.92
2024-03-09T10:49:43.069Z,68.19
2024-03-09T10:52:12.892Z,67.43
2024-03-09T10:54:45.046Z,67.09
2024-03-09T10:57:20.247Z,67.62
2024-03-09T10:59:47.859Z,67.93
2024-03-09T11:02:15.241Z,67.16
2024-03-09T11:04:44.059Z,67.04
2024-03-09T11:07:10.844Z,66.10
2024-03-09T11:09:38.018Z,65.43
2024-03-09T11:12:05.893Z,66.47
2024-03-09T11:14:34.183Z,68.01
2024-03-09T11:17:01.091Z,68.66
2024-03-09T11:19:28.493Z,68.76
2024-03-09T11:21:58.585Z,68.59
2024-03-09T11:24:26.649Z,68.45
2024-03-09T11:26:53.475Z,68.96
2024-03-09T11:29:22.466Z,68.55
2024-03-09T11:31:57.342Z,67.51
2024-03-09T11:34:24.122Z,65.55
2024-03-09T11:36:51.989Z,64.80
2024-03-09T11:39:20.520Z,63.81
2024-03-09T11:41:49.193Z,62.34
2024-03-09T11:44:20.773Z,59.62
2024-03-09T11:46:48.150Z,59.40
2024-03-09T11:49:16.957Z,59.92
2024-03-09T11:51:44.501Z,58.41
2024-03-09T11:54:12.536Z,58.29
2024-03-09T11:56:41.321Z,58.73
2024-03-09T11:59:09.212Z,58.25
2024-03-09T12:01:36.068Z,57.38
2024-03-09T12:04:06.358Z,57.05
2024-03-09T12:06:35.825Z,56.10
2024-03-09T12:09:02.713Z,57.72
2024-03-09T12:11:33.318Z,57.51
2024-03-09T12:14:00.333Z,54.88
2024-03-09T12:16:28.892Z,54.01
2024-03-09T12:18:57.634Z,52.55
2024-03-09T12:21:26.939Z,52.61
2024-03-09T12:23:57.254Z,52.77
2024-03-09T12:26:25.027Z,52.54
2024-03-09T12:28:51.768Z,51.28
2024-03-09T12:31:18.790Z,50.40
2024-03-09T12:33:46.276Z,48.51
2024-03-09T12:36:14.452Z,47.21
2024-03-09T12:38:41.418Z,46.47
2024-03-09T12:41:24.704Z,46.02
2024-03-09T12:43:51.523Z,46.82
2024-03-09T12:46:19.602Z,47.08
2024-03-09T12:48:46.518Z,48.64
2024-03-09T12:51:15.193Z,49.15
2024-03-09T12:53:41.908Z,49.76
2024-03-09T12:56:10.609Z,49.46
2024-03-09T12:58:37.622Z,49.59
2024-03-09T13:01:04.551Z,49.05
2024-03-09T13:03:31.367Z,48.23
2024-03-09T13:05:58.105Z,48.51
2024-03-09T13:08:25.082Z,48.00
2024-03-09T13:10:52.104Z,47.81
2024-03-09T13:13:20.886Z,48.19
2024-03-09T13:15:47.914Z,47.87
2024-03-09T13:18:14.674Z,46.67
2024-03-09T13:20:41.695Z,47.58
2024-03-09T13:23:09.536Z,47.74
2024-03-09T13:25:36.475Z,47.45
2024-03-09T13:28:04.218Z,47.78
2024-03-09T13:30:33.009Z,49.26
2024-03-09T13:32:59.837Z,49.74
2024-03-09T13:35:26.665Z,49.92
2024-03-09T13:37:54.863Z,49.88
2024-03-09T13:40:22.109Z,51.67
2024-03-09T13:42:49.936Z,51.29
2024-03-09T13:45:16.980Z,50.51
2024-03-09T13:47:48.257Z,51.41
2024-03-09T13:50:15.188Z,50.78
2024-03-09T13:52:41.958Z,50.00
2024-03-09T13:55:11.224Z,49.90
2024-03-09T13:57:38.360Z,49.40
2024-03-09T14:00:07.725Z,49.59
2024-03-09T14:02:34.657Z,50.10
2024-03-09T14:05:02.920Z,50.97
2024-03-09T14:07:30.357Z,50.35
2024-03-09T14:09:57.463Z,50.23
2024-03-09T14:12:24.664Z,50.15
2024-03-09T14:14:53.713Z,50.57
2024-03-09T14:17:22.067Z,50.12
2024-03-09T14:19:49.389Z,48.77
2024-03-09T14:22:17.811Z,47.93
2024-03-09T14:24:45.241Z,48.48
2024-03-09T14:27:12.347Z,48.93
2024-03-09T14:29:39.106Z,48.74
2024-03-09T14:32:05.887Z,49.29
2024-03-09T14:34:32.639Z,48.78
2024-03-09T14:36:59.524Z,48.28
2024-03-09T14:39:27.724Z,48.43
2024-03-09T14:41:54.554Z,47.75
2024-03-09T14:44:21.521Z,47.08
2024-03-09T14:46:48.356Z,46.91
2024-03-09T14:49:15.258Z,47.47
2024-03-09T14:51:42.039Z,47.87
2024-03-09T14:54:08.889Z,47.55
2024-03-09T14:56:36.985Z,48.18
2024-03-09T14:59:03.750Z,48.17
2024-03-09T15:01:30.686Z,48.94
2024-03-09T15:03:57.497Z,48.61
2024-03-09T15:06:24.484Z,48.45
2024-03-09T15:08:51.330Z,48.39
2024-03-09T15:11:18.217Z,48.12
2024-03-09T15:13:49.241Z,47.94
2024-03-09T15:16:16.905Z,47.74
2024-03-09T15:18:43.695Z,47.87
2024-03-09T15:21:10.829Z,48.08
2024-03-09T15:23:37.615Z,47.68
2024-03-09T15:26:04.618Z,47.53
2024-03-09T15:28:31.297Z,47.02
2024-03-09T15:30:59.418Z,47.56
2024-03-09T15:33:26.336Z,47.68
2024-03-09T15:35:53.479Z,47.68
2024-03-09T15:38:21.185Z,47.18
2024-03-09T15:40:47.919Z,47.11
2024-03-09T15:43:15.070Z,47.29
2024-03-09T15:45:42.044Z,47.79
2024-03-09T15:48:10.294Z,48.00
2024-03-09T15:50:37.123Z,48.76
2024-03-09T15:53:04.429Z,48.39
2024-03-09T15:55:32.353Z,48.85
2024-03-09T15:57:59.402Z,48.96
2024-03-09T16:00:26.178Z,49.68
2024-03-09T16:02:53.397Z,49.51
2024-03-09T16:05:21.904Z,48.70
2024-03-09T16:07:48.765Z,48.76
2024-03-09T16:10:16.379Z,48.33
2024-03-09T16:12:43.129Z,48.47
2024-03-09T16:15:10.003Z,48.68
2024-03-09T16:17:37.753Z,49.35
2024-03-09T16:20:05.437Z,49.66
2024-03-09T16:22:33.551Z,49.75
2024-03-09T16:25:00.317Z,49.51
2024-03-09T16:27:27.208Z,49.61
2024-03-09T16:29:53.982Z,49.70
2024-03-09T16:32:20.831Z,50.01
2024-03-09T16:34:48.691Z,50.49
2024-03-09T16:37:15.444Z,50.35
2024-03-09T16:39:43.602Z,50.34
2024-03-09T16:42:10.292Z,50.73
2024-03-09T16:44:36.997Z,51.80
2024-03-09T16:47:03.983Z,52.16
2024-03-09T16:49:33.669Z,53.73
2024-03-09T16:52:00.815Z,55.07
2024-03-09T16:54:27.674Z,55.51
2024-03-09T16:56:55.713Z,56.05
2024-03-09T16:59:22.587Z,55.83
2024-03-09T17:01:49.503Z,56.41
2024-03-09T17:04:16.316Z,56.81
2024-03-09T17:06:43.149Z,56.40
2024-03-09T17:09:10.015Z,56.70
2024-03-09T17:11:37.237Z,56.97
2024-03-09T17:14:05.744Z,57.40
2024-03-09T17:16:32.628Z,57.36
2024-03-09T17:18:59.377Z,57.69
2024-03-09T17:21:26.096Z,57.92
2024-03-09T17:23:53.071Z,58.09
2024-03-09T17:26:20.081Z,58.33
2024-03-09T17:28:46.959Z,59.07
2024-03-09T17:31:15.569Z,59.97
2024-03-09T17:33:42.350Z,59.71
2024-03-09T17:36:09.227Z,59.62
2024-03-09T17:38:36.001Z,59.92
2024-03-09T17:41:03.006Z,60.68
2024-03-09T17:43:29.760Z,59.54
2024-03-09T17:45:56.607Z,59.52
2024-03-09T17:48:26.165Z,60.45
2024-03-09T17:50:52.837Z,60.18
2024-03-09T17:53:19.671Z,61.26
2024-03-09T17:55:46.709Z,62.58
2024-03-09T17:58:13.904Z,62.90
2024-03-09T18:00:40.701Z,61.82
2024-03-09T18:03:07.638Z,61.41
2024-03-09T18:05:36.016Z,61.08
2024-03-09T18:08:04.561Z,61.24
2024-03-09T18:10:31.429Z,60.82
2024-03-09T18:12:58.469Z,61.71
2024-03-09T18:15:26.189Z,62.45
2024-03-09T18:17:53.154Z,61.56
2024-03-09T18:20:20.237Z,62.51
2024-03-09T18:22:48.782Z,62.82
2024-03-09T18:25:15.518Z,63.52
2024-03-09T18:27:42.235Z,63.63
2024-03-09T18:30:10.059Z,64.33
2024-03-09T18:32:36.745Z,64.78
2024-03-09T18:35:03.994Z,64.93
2024-03-09T18:37:30.797Z,64.57
2024-03-09T18:39:58.927Z,66.04
2024-03-09T18:42:25.785Z,65.22
2024-03-09T18:44:52.564Z,65.22
2024-03-09T18:47:19.359Z,65.71
2024-03-09T18:49:46.336Z,66.55
2024-03-09T18:52:13.106Z,65.30
2024-03-09T18:54:39.835Z,65.63
2024-03-09T18:57:08.062Z,65.93
2024-03-09T18:59:36.998Z,66.28
2024-03-09T19:02:03.909Z,66.76
2024-03-09T19:04:32.348Z,66.27
2024-03-09T19:06:59.263Z,66.97
2024-03-09T19:09:26.046Z,66.54
2024-03-09T19:11:52.814Z,66.62
2024-03-09T19:14:21.225Z,68.63
2024-03-09T19:16:48.271Z,66.99
2024-03-09T19:19:15.073Z,67.40
2024-03-09T19:21:41.759Z,67.28
2024-03-09T19:24:08.563Z,67.39
2024-03-09T19:26:35.344Z,68.09
2024-03-09T19:29:02.217Z,69.25
2024-03-09T19:31:30.450Z,68.60
2024-03-09T19:33:57.399Z,69.69
2024-03-09T19:36:24.210Z,69.47
2024-03-09T19:38:50.910Z,68.80
2024-03-09T19:41:17.768Z,69.80
2024-03-09T19:43:44.800Z,69.57
2024-03-09T19:46:11.794Z,69.70
2024-03-09T19:48:39.890Z,69.56
2024-03-09T19:51:06.677Z,68.82
2024-03-09T19:53:35.155Z,69.37
2024-03-09T19:56:01.899Z,69.71
2024-03-09T19:58:28.618Z,69.64
2024-03-09T20:00:55.331Z,69.70
2024-03-09T20:03:22.154Z,69.13
2024-03-09T20:05:50.397Z,67.95
2024-03-09T20:08:17.175Z,68.71
2024-03-09T20:10:43.930Z,69.56
2024-03-09T20:13:10.754Z,69.48
2024-03-09T20:15:37.584Z,69.62
2024-03-09T20:18:05.149Z,69.09
2024-03-09T20:20:32.267Z,69.39
2024-03-09T20:23:00.375Z,70.58
2024-03-09T20:25:27.232Z,70.41
2024-03-09T20:27:54.088Z,69.69
2024-03-09T20:30:21.432Z,71.11
2024-03-09T20:32:50.500Z,69.77
2024-03-09T20:35:17.636Z,69.56
2024-03-09T20:37:45.798Z,69.62
2024-03-09T20:40:14.885Z,69.37
2024-03-09T20:42:41.981Z,69.31
2024-03-09T20:45:09.571Z,69.69
2024-03-09T20:47:36.881Z,69.27
2024-03-09T20:50:03.979Z,68.44
2024-03-09T20:52:31.641Z,68.76
2024-03-09T20:54:58.305Z,69.23
2024-03-09T20:57:26.485Z,70.05
2024-03-09T20:59:53.214Z,72.40
2024-03-09T21:02:20.106Z,71.81
2024-03-09T21:04:48.295Z,71.09
2024-03-09T21:07:16.064Z,70.16
2024-03-09T21:09:42.779Z,69.73
2024-03-09T21:12:09.590Z,69.56
2024-03-09T21:14:38.392Z,69.97
2024-03-09T21:17:05.379Z,71.38
2024-03-09T21:19:32.234Z,70.68
2024-03-09T21:21:58.934Z,69.59
2024-03-09T21:24:25.690Z,70.13
2024-03-09T21:26:52.396Z,69.93
2024-03-09T21:29:19.217Z,70.10
2024-03-09T21:31:47.973Z,70.90
2024-03-09T21:34:15.340Z,71.50
2024-03-09T21:36:42.619Z,70.51
2024-03-09T21:39:09.311Z,69.60
2024-03-09T21:41:36.011Z,70.31
2024-03-09T21:44:02.717Z,69.79
2024-03-09T21:46:29.477Z,69.55
2024-03-09T21:48:57.502Z,70.18
2024-03-09T21:51:24.302Z,70.74
2024-03-09T21:53:51.042Z,70.55
2024-03-09T21:56:17.883Z,71.10
2024-03-09T21:58:44.674Z,72.87
2024-03-09T22:01:11.847Z,72.70
2024-03-09T22:03:39.137Z,73.15
2024-03-09T22:06:07.782Z,74.13
2024-03-09T22:08:34.651Z,74.40
2024-03-09T22:11:01.829Z,74.18
2024-03-09T22:13:28.712Z,73.74
2024-03-09T22:15:55.978Z,73.21
2024-03-09T22:18:22.986Z,73.30
2024-03-09T22:20:49.788Z,73.32
2024-03-09T22:23:18.027Z,72.38
2024-03-09T22:25:44.761Z,73.63
2024-03-09T22:28:11.604Z,72.01
2024-03-09T22:30:38.332Z,72.21
2024-03-09T22:33:05.232Z,71.92
2024-03-09T22:35:32.022Z,73.34
2024-03-09T22:37:58.941Z,71.96
2024-03-09T22:40:27.040Z,72.93
2024-03-09T22:42:53.893Z,75.34
2024-03-09T22:45:20.831Z,74.93
2024-03-09T22:47:47.988Z,73.97
2024-03-09T22:50:16.928Z,73.37
2024-03-09T22:52:44.237Z,74.66
2024-03-09T22:55:11.573Z,73.54
2024-03-09T22:57:39.974Z,75.44
2024-03-09T23:00:07.907Z,74.65
2024-03-09T23:02:34.981Z,75.56
2024-03-09T23:05:02.279Z,74.98
2024-03-09T23:07:29.077Z,74.95
2024-03-09T23:09:55.851Z,75.18
2024-03-09T23:12:22.823Z,75.88
2024-03-09T23:14:50.932Z,76.33
2024-03-09T23:17:17.914Z,76.87
2024-03-09T23:19:44.736Z,76.83
2024-03-09T23:22:11.539Z,77.72
2024-03-09T23:24:38.243Z,77.02
2024-03-09T23:27:05.397Z,76.63
2024-03-09T23:29:32.508Z,75.45
2024-03-09T23:32:01.355Z,76.27
2024-03-09T23:34:28.245Z,79.20
2024-03-09T23:36:55.020Z,76.92
2024-03-09T23:39:21.697Z,76.38
2024-03-09T23:41:48.407Z,77.15
2024-03-09T23:44:15.154Z,77.23
2024-03-09T23:46:42.485Z,76.57
2024-03-09T23:49:10.719Z,78.09
2024-03-09T23:51:37.656Z,76.19
2024-03-09T23:54:05.596Z,76.86
2024-03-09T23:56:32.531Z,76.10
2024-03-09T23:58:59.582Z,75.32
